Time;durP1;ratioP1;P1;durP2;ratioP2;P2;SDS_P1;SDS_P2;PMS_P1;PMS_P2;Temp;Humidity;BMP_temperature;BMP_pressure;BME280_temperature;BME280_humidity;BME280_pressure;Samples;Min_cycle;Max_cycle;Signal;HPM_P1;HPM_P2
2023/03/27 04:30:47;;;;;;;;;;;;;;;;;;;;;
2023/03/27 04:55:44;;;;;;;9.33;2.47;;;;;;;0.54;81.20;95192.69;6181622;23;20159;-87
2023/03/27 04:58:22;;;;;;;5.43;1.83;;;;;;;0.47;81.10;95196.53;6168946;23;20188;-86
2023/03/27 05:01:19;;;;;;;12.17;2.73;;;;;;;0.44;81.58;95206.13;6128179;23;20171;-87
2023/03/27 05:03:53;;;;;;;8.77;1.80;;;;;;;0.49;81.69;95215.16;6103943;23;20179;-86
2023/03/27 05:06:18;;;;;;;11.23;2.23;;;;;;;0.56;81.33;95213.84;6126584;23;20148;-88
2023/03/27 05:08:52;;;;;;;8.57;2.20;;;;;;;0.57;81.45;95222.34;6099833;23;20194;-84
2023/03/27 05:11:21;;;;;;;11.13;2.67;;;;;;;0.43;81.13;95222.38;6076843;23;20201;-86
2023/03/27 05:13:47;;;;;;;12.83;2.00;;;;;;;0.57;81.26;95224.91;6098096;23;20180;-87
2023/03/27 05:16:12;;;;;;;7.57;1.77;;;;;;;0.39;81.98;95231.13;6137526;23;20156;-85
2023/03/27 05:18:37;;;;;;;13.37;2.47;;;;;;;0.34;81.30;95236.50;6078133;23;20187;-85
2023/03/27 05:21:03;;;;;;;13.00;2.50;;;;;;;0.62;82.98;95245.88;6076616;23;20230;-83
2023/03/27 05:23:37;;;;;;;8.03;2.57;;;;;;;0.62;80.76;95263.78;6078958;23;20164;-85
2023/03/27 05:26:03;;;;;;;9.10;2.87;;;;;;;0.49;81.01;95271.34;6100267;23;20163;-81
2023/03/27 05:28:31;;;;;;;14.57;2.30;;;;;;;0.54;80.88;95269.34;6100431;23;20242;-85
2023/03/27 05:30:59;;;;;;;6.80;1.93;;;;;;;0.68;80.68;95262.56;6099430;23;20160;-83
2023/03/27 05:33:25;;;;;;;10.97;2.33;;;;;;;0.19;81.86;95289.34;6100167;23;20500;-84
2023/03/27 05:35:51;;;;;;;10.20;2.33;;;;;;;0.61;80.71;95297.88;6075928;23;20156;-85
2023/03/27 05:38:23;;;;;;;11.47;2.43;;;;;;;0.32;80.91;95293.72;6075590;23;20627;-85
2023/03/27 05:43:45;;;;;;;7.20;1.87;;;;;;;0.64;81.28;95310.50;5989634;23;20169;-84
2023/03/27 05:46:10;;;;;;;7.83;2.37;;;;;;;0.67;80.64;95309.47;5961616;23;20183;-85
2023/03/27 05:48:37;;;;;;;6.17;2.10;;;;;;;0.72;80.75;95313.41;5962121;23;20186;-83
2023/03/27 05:51:03;;;;;;;4.73;1.80;;;;;;;0.69;80.70;95315.31;5963104;23;20167;-85
2023/03/27 05:53:29;;;;;;;9.93;2.10;;;;;;;0.70;79.99;95325.44;5986218;23;20175;-86
2023/03/27 05:55:54;;;;;;;7.17;2.10;;;;;;;0.80;80.82;95315.50;5961761;23;20169;-85
2023/03/27 05:58:19;;;;;;;8.60;2.40;;;;;;;0.68;80.00;95327.28;5985360;23;20187;-85
2023/03/27 06:00:45;;;;;;;4.73;2.00;;;;;;;0.71;79.97;95337.31;6008968;23;20306;-84
2023/03/27 06:03:11;;;;;;;9.03;2.10;;;;;;;0.73;79.53;95350.81;5961102;23;20171;-84
2023/03/27 06:05:39;;;;;;;7.27;2.20;;;;;;;0.39;79.64;95351.19;5984984;23;20193;-86
2023/03/27 06:08:10;;;;;;;18.63;2.43;;;;;;;0.51;79.48;95355.56;6007055;23;20193;-84
2023/03/27 06:10:39;;;;;;;14.93;2.67;;;;;;;0.56;80.25;95368.91;5964098;23;20215;-85
2023/03/27 06:13:15;;;;;;;4.27;1.63;;;;;;;0.62;79.40;95373.66;5963719;23;20226;-84
2023/03/27 06:15:41;;;;;;;10.30;2.40;;;;;;;0.67;78.90;95376.75;6101458;23;20151;-83
2023/03/27 06:18:09;;;;;;;12.13;2.33;;;;;;;0.81;79.80;95389.53;6076356;23;20267;-83
2023/03/27 06:20:36;;;;;;;10.43;2.00;;;;;;;0.79;79.80;95390.50;6102587;23;20155;-81
2023/03/27 06:23:02;;;;;;;9.57;2.80;;;;;;;0.94;78.58;95404.13;6077509;23;20152;-79
2023/03/27 06:25:33;;;;;;;6.73;1.80;;;;;;;1.07;76.95;95410.16;6103010;23;20556;-84
2023/03/27 06:27:59;;;;;;;8.30;2.30;;;;;;;0.97;77.58;95415.00;6078934;23;20524;-84
2023/03/27 06:30:27;;;;;;;9.27;1.90;;;;;;;1.17;76.51;95420.63;6078753;23;20163;-84
2023/03/27 06:33:01;;;;;;;6.63;2.30;;;;;;;1.35;76.84;95417.75;6079413;23;20156;-84
2023/03/27 06:35:31;;;;;;;9.53;2.07;;;;;;;1.46;77.01;95442.69;6103956;23;20214;-84
2023/03/27 06:38:01;;;;;;;11.13;2.17;;;;;;;1.55;75.19;95441.28;6080274;23;20184;-83
2023/03/27 06:40:37;;;;;;;7.27;1.73;;;;;;;1.32;74.82;95440.13;6081227;23;20159;-85
2023/03/27 06:43:10;;;;;;;7.13;2.23;;;;;;;1.41;75.59;95445.53;6103099;23;20159;-84
2023/03/27 06:45:44;;;;;;;8.60;2.27;;;;;;;1.31;76.12;95439.31;6079663;23;20218;-84
2023/03/27 06:48:10;;;;;;;6.07;2.10;;;;;;;1.29;76.68;95448.84;6079815;23;20180;-84
2023/03/27 06:50:35;;;;;;;12.20;2.67;;;;;;;1.21;75.29;95453.59;6080309;23;20595;-85
2023/03/27 06:53:01;;;;;;;8.30;2.40;;;;;;;1.44;75.89;95459.06;6080860;23;20174;-85
2023/03/27 06:55:31;;;;;;;7.97;2.20;;;;;;;1.34;76.31;95469.03;6101480;23;20148;-84
2023/03/27 06:57:58;;;;;;;10.03;2.17;;;;;;;1.16;75.63;95465.84;6103165;23;20510;-86
2023/03/27 07:00:28;;;;;;;8.30;2.33;;;;;;;1.20;74.43;95467.31;6102514;23;20558;-87
2023/03/27 07:02:55;;;;;;;12.23;2.23;;;;;;;0.99;74.31;95477.09;6103395;23;20174;-87
2023/03/27 07:05:22;;;;;;;9.33;2.47;;;;;;;1.18;74.29;95487.03;6127581;23;20576;-87
2023/03/27 07:07:49;;;;;;;8.80;2.07;;;;;;;1.28;73.58;95487.31;6103453;23;20180;-85
2023/03/27 07:10:15;;;;;;;11.47;3.10;;;;;;;1.46;73.01;95490.47;6102955;23;20160;-85
2023/03/27 07:12:53;;;;;;;5.27;2.80;;;;;;;1.92;73.05;95491.00;6103490;23;20218;-85
2023/03/27 07:15:19;;;;;;;15.77;5.30;;;;;;;1.57;71.92;95490.63;6100764;23;20267;-84
2023/03/27 07:18:00;;;;;;;8.77;1.90;;;;;;;1.61;71.22;95492.94;6102977;23;20176;-84
2023/03/27 07:20:27;;;;;;;9.07;2.67;;;;;;;1.76;71.64;95490.31;6102245;23;20191;-83
2023/03/27 07:22:57;;;;;;;8.93;3.07;;;;;;;1.25;72.64;95506.22;6103801;23;20497;-84
2023/03/27 07:25:24;;;;;;;10.47;2.30;;;;;;;1.67;72.76;95507.06;6101519;23;20225;-83
2023/03/27 07:27:58;;;;;;;8.17;2.20;;;;;;;1.91;71.65;95509.84;6102179;23;20187;-84
2023/03/27 07:30:23;;;;;;;11.07;2.60;;;;;;;1.88;70.96;95521.13;6101198;23;20163;-83
2023/03/27 07:32:49;;;;;;;8.57;2.50;;;;;;;1.69;69.89;95518.88;6093201;23;20221;-86
2023/03/27 07:35:14;;;;;;;4.90;2.07;;;;;;;1.78;70.09;95537.97;6113761;23;20505;-83
2023/03/27 07:37:39;;;;;;;6.47;2.00;;;;;;;1.59;70.93;95530.59;6127823;23;20622;-84
2023/03/27 07:40:06;;;;;;;11.07;2.30;;;;;;;1.77;71.21;95544.00;6125521;23;20174;-85
2023/03/27 07:42:32;;;;;;;7.33;2.20;;;;;;;1.73;69.77;95550.22;6100813;23;20223;-83
2023/03/27 07:44:58;;;;;;;8.80;2.20;;;;;;;1.82;70.67;95547.09;6100144;23;20164;-86
2023/03/27 07:47:24;;;;;;;5.47;2.40;;;;;;;1.92;69.34;95552.47;6101333;23;20175;-84
2023/03/27 07:49:50;;;;;;;8.57;1.70;;;;;;;1.83;69.26;95560.72;6101260;23;20494;-84
2023/03/27 07:52:16;;;;;;;13.67;2.90;;;;;;;1.96;69.90;95564.19;6101872;23;20239;-85
2023/03/27 07:54:41;;;;;;;9.90;2.10;;;;;;;2.17;69.46;95567.13;6100362;23;20206;-87
2023/03/27 07:57:07;;;;;;;7.13;2.80;;;;;;;2.05;69.27;95571.28;6126108;23;20203;-85
2023/03/27 07:59:32;;;;;;;5.87;1.60;;;;;;;2.31;68.54;95573.97;6101192;23;20184;-82
2023/03/27 08:01:58;;;;;;;10.47;2.03;;;;;;;2.23;68.14;95585.50;6101541;23;20191;-83
2023/03/27 08:04:23;;;;;;;6.10;2.33;;;;;;;2.19;66.95;95580.66;6101355;23;20163;-85
2023/03/27 08:06:50;;;;;;;8.57;2.07;;;;;;;2.17;65.44;95593.56;6100925;23;20163;-83
2023/03/27 08:09:17;;;;;;;8.87;1.90;;;;;;;2.41;66.22;95606.59;6100287;23;20190;-86
2023/03/27 08:11:43;;;;;;;7.00;1.90;;;;;;;2.37;65.21;95604.31;6101538;23;20159;-83
2023/03/27 08:14:08;;;;;;;8.10;1.83;;;;;;;1.96;66.48;95605.97;6125418;23;20156;-84
2023/03/27 08:16:35;;;;;;;6.13;1.90;;;;;;;2.44;65.99;95614.09;6102076;23;20222;-85
2023/03/27 08:19:02;;;;;;;8.80;2.17;;;;;;;2.15;65.95;95613.34;6127356;23;20526;-86
2023/03/27 08:21:32;;;;;;;10.77;2.40;;;;;;;2.39;64.62;95608.44;6102229;23;20221;-85
2023/03/27 08:23:57;;;;;;;4.90;2.07;;;;;;;2.70;64.11;95607.31;6100083;23;20239;-84
2023/03/27 08:26:23;;;;;;;5.93;2.87;;;;;;;2.63;64.03;95625.75;6100358;23;20210;-84
2023/03/27 08:28:52;;;;;;;8.53;2.83;;;;;;;2.69;63.63;95620.22;6100562;23;20264;-85
2023/03/27 08:31:18;;;;;;;11.87;2.53;;;;;;;2.86;62.50;95619.97;6101684;23;20183;-85
2023/03/27 08:33:47;;;;;;;5.67;2.23;;;;;;;3.04;61.45;95631.59;6102608;23;20187;-84
2023/03/27 08:36:13;;;;;;;8.10;2.10;;;;;;;2.80;60.81;95638.31;6101771;23;20247;-85
2023/03/27 08:38:42;;;;;;;7.90;2.07;;;;;;;2.89;61.16;95630.03;6101174;23;20572;-83
2023/03/27 08:41:39;;;;;;;10.10;2.50;;;;;;;2.72;60.31;95638.78;6102143;23;20183;-83
2023/03/27 08:44:11;;;;;;;4.40;1.60;;;;;;;2.80;59.30;95639.13;6102613;23;20215;-83
2023/03/27 08:46:55;;;;;;;13.67;2.00;;;;;;;3.01;59.62;95636.94;6124807;23;20136;-84
2023/03/27 08:49:21;;;;;;;6.93;1.93;;;;;;;3.18;60.96;95650.41;6100047;23;20171;-83
2023/03/27 08:51:54;;;;;;;5.10;2.40;;;;;;;3.26;59.65;95651.53;6099564;23;20272;-85
2023/03/27 08:54:25;;;;;;;7.13;2.00;;;;;;;3.00;60.47;95653.22;6097953;23;20218;-81
2023/03/27 08:56:55;;;;;;;9.87;1.90;;;;;;;3.22;60.75;95659.56;6098960;23;20243;-82
2023/03/27 08:59:23;;;;;;;7.90;2.10;;;;;;;3.05;57.86;95655.50;6100049;23;20190;-83
2023/03/27 09:01:51;;;;;;;8.50;2.17;;;;;;;3.23;58.21;95672.28;6123826;23;20683;-83
2023/03/27 09:04:30;;;;;;;6.63;2.00;;;;;;;3.31;59.32;95672.59;6099228;23;20164;-86
2023/03/27 09:07:02;;;;;;;3.47;1.67;;;;;;;3.38;59.76;95680.75;6124149;23;20136;-86
2023/03/27 09:10:20;;;;;;;5.87;1.80;;;;;;;3.25;58.67;95677.31;6102230;23;20175;-84
2023/03/27 09:13:14;;;;;;;9.00;2.80;;;;;;;3.08;58.99;95686.09;6118569;23;20163;-84
2023/03/27 09:15:52;;;;;;;7.93;2.20;;;;;;;3.22;60.28;95677.53;6098137;23;20164;-85
2023/03/27 09:18:27;;;;;;;6.83;1.70;;;;;;;3.32;59.36;95686.25;6123765;23;20179;-84
2023/03/27 09:21:10;;;;;;;6.43;1.70;;;;;;;3.45;58.62;95687.13;6124604;23;20163;-84
2023/03/27 09:23:46;;;;;;;10.93;2.23;;;;;;;3.57;57.74;95696.56;6101605;23;20638;-85
2023/03/27 09:26:21;;;;;;;5.87;1.57;;;;;;;3.87;56.35;95695.44;6101379;23;20702;-83
2023/03/27 09:28:54;;;;;;;4.93;1.67;;;;;;;3.99;56.31;95697.19;6121847;23;20179;-83
2023/03/27 09:31:51;;;;;;;8.77;2.33;;;;;;;4.32;55.28;95694.06;6099870;23;20154;-84
2023/03/27 09:34:24;;;;;;;5.93;1.77;;;;;;;4.47;55.65;95699.88;6040913;23;20161;-83
2023/03/27 09:36:49;;;;;;;6.90;1.90;;;;;;;4.74;55.57;95695.38;6039479;23;20605;-83
2023/03/27 09:39:21;;;;;;;6.77;1.70;;;;;;;4.21;53.96;95706.84;6017245;23;20228;-84
2023/03/27 09:41:50;;;;;;;4.50;1.57;;;;;;;4.36;54.05;95712.69;6041474;23;20604;-83
2023/03/27 09:44:27;;;;;;;6.77;1.90;;;;;;;4.71;54.12;95705.09;6067921;23;20259;-83
2023/03/27 09:47:07;;;;;;;6.53;1.90;;;;;;;5.00;54.46;95700.44;6021581;23;20168;-81
2023/03/27 09:49:33;;;;;;;9.73;1.70;;;;;;;5.14;54.07;95707.19;6046113;23;20201;-83
2023/03/27 09:52:00;;;;;;;10.03;2.23;;;;;;;4.74;50.94;95710.81;6046012;23;20189;-83
2023/03/27 09:54:28;;;;;;;8.13;1.83;;;;;;;4.26;50.13;95715.88;6046054;23;20183;-84
2023/03/27 09:56:58;;;;;;;7.23;1.50;;;;;;;4.64;50.85;95717.53;6021001;23;20165;-84
2023/03/27 09:59:31;;;;;;;4.00;1.57;;;;;;;5.11;53.17;95727.03;6068717;23;20189;-83
2023/03/27 10:02:17;;;;;;;3.67;1.67;;;;;;;4.93;48.68;95732.69;6043348;23;20914;-83
2023/03/27 10:05:16;;;;;;;5.20;1.83;;;;;;;4.23;48.36;95741.78;6018847;23;20156;-79
2023/03/27 10:07:44;;;;;;;7.13;1.50;;;;;;;4.50;49.39;95739.06;6044701;23;20181;-83
2023/03/27 10:10:18;;;;;;;4.43;1.30;;;;;;;4.78;49.28;95745.72;6085564;23;20162;-84
2023/03/27 10:12:47;;;;;;;5.53;1.80;;;;;;;5.10;49.62;95738.28;6105647;23;20206;-84
2023/03/27 10:15:32;;;;;;;6.83;1.60;;;;;;;5.55;50.48;95737.63;6103743;23;20167;-84
2023/03/27 10:17:59;;;;;;;6.27;1.80;;;;;;;5.47;48.64;95743.34;6102233;23;20708;-84
2023/03/27 10:20:25;;;;;;;5.03;1.50;;;;;;;5.04;46.41;95743.06;6102308;23;20197;-84
2023/03/27 10:23:00;;;;;;;3.20;1.30;;;;;;;5.00;48.22;95751.91;6102812;23;20253;-84
2023/03/27 10:25:33;;;;;;;5.50;1.40;;;;;;;5.35;50.33;95752.78;6105222;23;20194;-85
2023/03/27 10:28:16;;;;;;;5.90;1.80;;;;;;;5.31;48.85;95766.00;6102229;23;20630;-84
2023/03/27 10:30:41;;;;;;;5.47;1.43;;;;;;;5.20;46.76;95765.94;6103969;23;20151;-84
2023/03/27 10:33:06;;;;;;;5.67;1.40;;;;;;;5.28;48.33;95761.88;6128170;23;20545;-84
2023/03/27 10:35:37;;;;;;;4.80;1.30;;;;;;;5.00;49.07;95765.59;6103481;23;20238;-84
2023/03/27 10:38:09;;;;;;;6.07;1.70;;;;;;;4.84;47.20;95767.59;6107700;23;20183;-84
2023/03/27 10:40:36;;;;;;;5.00;1.67;;;;;;;5.02;45.59;95750.03;6104733;23;20183;-83
2023/03/27 10:43:04;;;;;;;3.87;1.70;;;;;;;5.20;45.47;95765.94;6101952;23;20617;-83
2023/03/27 10:45:31;;;;;;;6.23;1.73;;;;;;;5.37;43.82;95761.22;6100296;23;20160;-82
2023/03/27 10:48:00;;;;;;;4.90;1.80;;;;;;;5.63;45.13;95761.91;6125353;23;20667;-84
2023/03/27 10:50:40;;;;;;;4.33;1.93;;;;;;;5.23;45.32;95758.81;6119491;23;20159;-84
2023/03/27 10:53:28;;;;;;;4.27;1.70;;;;;;;5.51;46.22;95756.84;6101344;23;20175;-83
2023/03/27 10:56:18;;;;;;;8.07;3.20;;;;;;;5.48;46.72;95775.06;6125085;23;20156;-83
2023/03/27 10:58:48;;;;;;;4.53;2.00;;;;;;;5.59;47.51;95765.66;6126063;23;20179;-84
2023/03/27 11:01:21;;;;;;;5.27;2.60;;;;;;;5.59;48.60;95759.69;6101156;23;20167;-85
2023/03/27 11:03:51;;;;;;;13.20;6.37;;;;;;;5.86;47.72;95767.94;6104810;23;20170;-84
2023/03/27 11:06:21;;;;;;;10.73;5.17;;;;;;;5.51;46.33;95773.09;6104157;23;20468;-83
2023/03/27 11:09:28;;;;;;;5.17;1.90;;;;;;;5.65;46.72;95783.25;6145320;23;20204;-83
2023/03/27 11:16:15;;;;;;;6.33;2.23;;;;;;;5.42;46.35;95783.25;6187040;23;20162;-84
2023/03/27 11:26:35;;;;;;;5.60;1.50;;;;;;;5.72;47.79;95785.34;5952384;24;20212;-85
2023/03/27 11:33:44;;;;;;;3.43;1.50;;;;;;;6.02;45.67;95790.06;5927407;24;20172;-84
2023/03/27 11:35:56;;;;;;;3.47;1.47;;;;;;;6.24;46.17;95792.66;5846702;24;20189;-83
2023/03/27 11:38:30;;;;;;;4.70;1.20;;;;;;;6.65;45.52;95807.59;5925326;24;20585;-84
2023/03/27 11:41:06;;;;;;;;;;;;;;;;;;;;;
2023/03/27 11:44:15;;;;;;;6.30;1.40;;;;;;;6.84;44.86;95795.84;5903166;24;20247;-83
2023/03/27 11:46:53;;;;;;;5.70;1.37;;;;;;;6.57;42.80;95791.88;5897350;24;20183;-82
2023/03/27 11:49:38;;;;;;;3.67;1.33;;;;;;;6.58;43.42;95805.59;5924878;24;20188;-85
2023/03/27 11:52:26;;;;;;;5.67;1.30;;;;;;;6.15;43.04;95798.50;5924850;24;20160;-83
2023/03/27 11:55:05;;;;;;;4.70;1.40;;;;;;;6.21;43.64;95803.22;5918007;23;20162;-84
2023/03/27 11:57:53;;;;;;;3.93;1.30;;;;;;;6.11;44.39;95797.09;5996371;23;20178;-85
2023/03/27 12:00:25;;;;;;;4.57;1.50;;;;;;;6.21;46.67;95814.34;6129573;23;20264;-83
2023/03/27 12:03:35;;;;;;;6.30;2.10;;;;;;;6.07;45.44;95821.47;6186289;23;20174;-84
2023/03/27 12:06:21;;;;;;;4.27;1.50;;;;;;;5.57;47.50;95828.53;6162264;23;20158;-85
2023/03/27 12:09:11;;;;;;;5.77;1.80;;;;;;;5.84;48.74;95821.38;6162330;23;20178;-84
2023/03/27 12:11:45;;;;;;;4.87;1.40;;;;;;;6.17;47.69;95823.22;6160112;23;20256;-84
2023/03/27 12:14:43;;;;;;;4.13;1.27;;;;;;;6.28;46.89;95827.63;6184561;23;20163;-84
2023/03/27 12:17:25;;;;;;;3.33;1.13;;;;;;;5.83;45.65;95818.88;6175370;23;20609;-83
2023/03/27 12:20:04;;;;;;;5.20;1.60;;;;;;;5.87;46.86;95815.97;6176452;23;20182;-84
2023/03/27 12:22:50;;;;;;;5.17;2.90;;;;;;;6.00;46.74;95815.09;6148966;23;20173;-85
2023/03/27 12:25:32;;;;;;;4.47;1.53;;;;;;;6.21;46.71;95823.84;6176507;23;20182;-86
2023/03/27 12:28:16;;;;;;;4.93;1.77;;;;;;;6.40;47.22;95829.28;6150415;23;20228;-85
2023/03/27 12:31:03;;;;;;;3.50;1.20;;;;;;;6.68;47.27;95822.84;6172049;23;20166;-86
2023/03/27 12:33:49;;;;;;;6.07;1.30;;;;;;;6.89;47.02;95816.97;6150611;23;20301;-85
2023/03/27 12:36:21;;;;;;;2.90;1.30;;;;;;;6.97;45.86;95824.94;6151032;23;20166;-85
2023/03/27 12:38:47;;;;;;;3.53;1.27;;;;;;;7.16;48.12;95832.91;6171632;23;20186;-82
2023/03/27 12:41:25;;;;;;;3.33;1.40;;;;;;;7.29;47.11;95831.00;6124397;23;20166;-84
2023/03/27 12:43:58;;;;;;;2.20;0.90;;;;;;;7.49;47.02;95824.25;6160458;23;20173;-84
2023/03/27 12:46:23;;;;;;;3.90;1.30;;;;;;;7.38;46.96;95834.63;6159183;23;20162;-84
2023/03/27 12:48:52;;;;;;;4.00;1.30;;;;;;;7.51;45.91;95819.81;6160720;23;20197;-85
2023/03/27 12:51:19;;;;;;;2.83;1.30;;;;;;;7.67;46.61;95815.03;6159878;23;20162;-83
2023/03/27 12:53:50;;;;;;;3.40;1.40;;;;;;;7.82;46.89;95823.31;6184681;23;20201;-83
2023/03/27 12:56:18;;;;;;;4.07;2.07;;;;;;;7.85;45.66;95820.47;6160022;23;20233;-84
2023/03/27 12:58:46;;;;;;;4.13;1.23;;;;;;;7.85;47.07;95819.66;6158529;23;20411;-84
2023/03/27 13:01:35;;;;;;;2.20;1.10;;;;;;;8.32;46.45;95820.97;6183727;23;20167;-85
2023/03/27 13:04:03;;;;;;;3.73;1.20;;;;;;;7.81;44.44;95815.69;6184979;23;20174;-82
2023/03/27 13:06:37;;;;;;;6.77;1.60;;;;;;;7.71;45.70;95814.81;6187149;23;20142;-85
2023/03/27 13:09:28;;;;;;;2.97;1.50;;;;;;;7.91;44.89;95811.41;6185954;23;20175;-84
2023/03/27 13:12:05;;;;;;;3.83;1.37;;;;;;;7.36;46.47;95828.75;6170068;23;20170;-85
2023/03/27 13:15:05;;;;;;;3.27;1.30;;;;;;;7.28;43.76;95831.13;6132873;23;20162;-85
2023/03/27 13:17:36;;;;;;;2.77;1.00;;;;;;;6.97;45.31;95838.66;6127762;23;20179;-87
2023/03/27 13:20:36;;;;;;;5.33;1.20;;;;;;;6.38;46.18;95850.97;6130986;23;20651;-86
2023/03/27 13:23:09;;;;;;;2.27;1.17;;;;;;;6.08;48.36;95851.47;6130806;23;20175;-85
2023/03/27 13:28:58;;;;;;;8.07;1.87;;;;;;;5.45;55.37;95861.13;6038553;23;20526;-85
2023/03/27 13:31:42;;;;;;;3.97;1.50;;;;;;;5.18;61.27;95876.75;6016085;23;20178;-86
2023/03/27 13:34:31;;;;;;;3.30;1.43;;;;;;;4.86;64.85;95888.44;6014885;23;20168;-86
2023/03/27 13:37:08;;;;;;;5.07;1.80;;;;;;;4.83;67.36;95886.91;6025605;23;20256;-85
2023/03/27 13:40:33;;;;;;;;;;;;;;;;;;;;;
2023/03/27 13:43:45;;;;;;;3.97;2.27;;;;;;;5.24;69.32;95886.63;5992546;24;20198;-84
2023/03/27 13:46:17;;;;;;;3.67;1.87;;;;;;;4.96;70.28;95886.91;5959892;23;20230;-84
2023/03/27 13:48:58;;;;;;;6.20;2.03;;;;;;;4.87;69.92;95890.09;5982052;23;20657;-85
2023/03/27 13:51:39;;;;;;;2.50;1.53;;;;;;;4.93;69.51;95887.91;5984030;23;20163;-86
2023/03/27 13:54:50;;;;;;;5.13;2.00;;;;;;;5.67;69.29;95891.34;6008165;23;20227;-85
2023/03/27 13:57:34;;;;;;;4.90;1.70;;;;;;;5.32;67.03;95876.63;5959066;23;20185;-88
2023/03/27 14:04:49;;;;;;;6.00;2.90;;;;;;;5.53;68.13;95896.63;6034999;23;20168;-86
2023/03/27 14:07:32;;;;;;;5.03;2.00;;;;;;;5.40;67.79;95894.94;6053992;23;20213;-87
2023/03/27 14:10:14;;;;;;;6.83;2.07;;;;;;;5.11;69.88;95889.22;6007014;23;20182;-84
2023/03/27 14:13:25;;;;;;;4.07;1.83;;;;;;;5.16;70.25;95895.81;5985784;23;20163;-84
2023/03/27 14:16:07;;;;;;;6.43;2.53;;;;;;;5.27;71.19;95895.88;5956408;24;20280;-84
2023/03/27 14:18:50;;;;;;;3.87;2.73;;;;;;;5.06;70.18;95891.31;5961709;23;20185;-83
2023/03/27 14:22:22;;;;;;;7.40;2.33;;;;;;;5.28;71.48;95882.06;5983706;23;20254;-83
2023/03/27 14:35:35;;;;;;;6.10;1.80;;;;;;;5.88;68.31;95886.41;5922897;24;20225;-85
2023/03/27 14:38:16;;;;;;;3.37;1.60;;;;;;;6.16;66.86;95877.50;5924519;24;20191;-86
2023/03/27 14:41:12;;;;;;;4.13;1.73;;;;;;;5.88;68.07;95882.06;5929676;23;20240;-86
2023/03/27 14:44:23;;;;;;;5.30;1.93;;;;;;;6.21;64.27;95885.75;5989696;23;20167;-85
2023/03/27 14:46:49;;;;;;;4.40;1.57;;;;;;;5.84;63.60;95883.22;5986813;23;20163;-83
2023/03/27 14:52:42;;;;;;;2.60;1.23;;;;;;;5.33;64.35;95878.25;6009136;23;20249;-84
2023/03/27 14:55:19;;;;;;;3.40;1.63;;;;;;;5.48;65.14;95875.53;6007023;23;20164;-83
2023/03/27 14:58:07;;;;;;;4.80;1.70;;;;;;;5.98;63.26;95877.09;6026215;23;20219;-86
2023/03/27 15:00:33;;;;;;;2.83;1.43;;;;;;;6.07;61.99;95880.75;6034594;23;20221;-84
2023/03/27 15:03:04;;;;;;;3.67;1.23;;;;;;;5.61;59.13;95886.63;6025042;23;20168;-83
2023/03/27 15:05:29;;;;;;;4.37;1.40;;;;;;;5.60;59.84;95884.97;6044880;23;20164;-84
2023/03/27 15:07:54;;;;;;;4.33;1.37;;;;;;;5.47;59.84;95879.84;6039039;23;20265;-85
2023/03/27 15:14:31;;;;;;;3.77;1.30;;;;;;;5.07;63.71;95899.84;6061115;23;20185;-84
2023/03/27 15:17:37;;;;;;;4.07;1.57;;;;;;;5.01;65.44;95895.94;6057844;23;20170;-83
2023/03/27 15:54:22;;;;;;;5.60;2.43;;;;;;;5.16;76.50;95922.38;6012338;23;20170;-80
2023/03/27 16:40:17;;;;;;;4.63;2.97;;;;;;;4.53;75.03;95938.66;6013631;23;20265;-82
2023/03/27 16:42:42;;;;;;;6.90;3.83;;;;;;;4.74;76.04;95933.81;6044850;23;20595;-83
2023/03/27 16:45:07;;;;;;;6.70;3.57;;;;;;;5.01;74.58;95949.16;6069161;23;20176;-82
2023/03/27 16:47:33;;;;;;;4.93;3.17;;;;;;;4.90;74.78;95946.50;6098248;23;20180;-82
2023/03/27 16:49:58;;;;;;;7.20;2.83;;;;;;;5.05;74.53;95948.88;6072648;23;20156;-83
2023/03/27 16:52:25;;;;;;;4.33;2.57;;;;;;;4.89;74.87;95944.84;6099110;23;20238;-81
2023/03/27 16:55:21;;;;;;;4.50;2.20;;;;;;;4.68;74.63;95952.22;6096214;23;20527;-81
2023/03/27 17:11:53;;;;;;;4.50;3.20;;;;;;;4.15;75.59;95975.41;6015360;23;20173;-84
2023/03/27 17:14:56;;;;;;;7.63;4.53;;;;;;;4.29;75.10;95968.53;6016615;23;20895;-84
2023/03/27 17:17:51;;;;;;;9.13;3.80;;;;;;;4.17;75.20;95975.31;5985737;23;20680;-84
2023/03/27 17:20:27;;;;;;;6.63;3.60;;;;;;;4.18;75.20;95980.34;5986903;23;20254;-84
2023/03/27 17:22:52;;;;;;;7.70;4.17;;;;;;;4.07;75.19;95987.91;5987407;23;20214;-84
2023/03/27 17:25:26;;;;;;;5.20;4.17;;;;;;;4.01;75.56;95983.16;5981484;23;20617;-85
2023/03/27 17:27:51;;;;;;;6.17;4.20;;;;;;;3.80;76.31;95984.47;5982437;23;20183;-84
2023/03/27 17:35:11;;;;;;;9.20;3.20;;;;;;;3.23;76.64;95989.72;5850554;24;20166;-84
2023/03/27 17:42:01;;;;;;;18.63;9.30;;;;;;;3.09;77.52;95993.94;5739434;24;20222;-84
2023/03/27 17:58:22;;;;;;;10.50;4.70;;;;;;;2.77;79.51;96044.56;5727649;25;20680;-85
2023/03/27 20:11:22;;;;;;;5.03;2.50;;;;;;;1.80;89.75;96149.88;6094713;23;20188;-84
2023/03/27 20:14:52;;;;;;;;;;;;;;;;;;;;;
2023/03/27 20:18:02;;;;;;;3.17;2.80;;;;;;;1.68;91.56;96148.78;6020561;23;20240;-85
2023/03/27 20:24:30;;;;;;;3.77;3.10;;;;;;;1.73;90.99;96151.91;6094176;23;20196;-84
2023/03/27 20:27:14;;;;;;;5.63;3.20;;;;;;;1.66;90.94;96163.38;6089893;23;20161;-83
2023/03/27 20:29:54;;;;;;;5.33;3.07;;;;;;;1.67;90.60;96163.28;6071599;23;20184;-84
2023/03/27 20:36:19;;;;;;;;;;;;;;;;;;;;;
2023/03/27 20:39:32;;;;;;;;;;;;;;;;;;;;;
2023/03/27 20:42:13;;;;;;;4.70;3.13;;;;;;;1.84;89.86;96172.66;6012295;23;20221;-85
2023/03/27 20:45:03;;;;;;;;;;;;;;;;;;;;;
2023/03/27 20:48:14;;;;;;;3.63;3.07;;;;;;;1.75;90.50;96175.69;6031041;23;20248;-85
2023/03/27 20:51:13;;;;;;;3.23;2.90;;;;;;;1.79;89.78;96179.75;6010377;23;20162;-84
2023/03/27 21:01:33;;;;;;;6.30;2.87;;;;;;;1.88;88.54;96186.97;5922449;24;20199;-84
2023/03/27 22:27:05;;;;;;;4.47;2.27;;;;;;;1.35;88.04;96239.13;5765057;24;20173;-86
2023/03/27 22:30:01;;;;;;;;;;;;;;;;;;;;;
2023/03/27 22:32:55;;;;;;;3.13;2.30;;;;;;;1.28;87.54;96242.88;5766079;24;20154;-87
2023/03/27 22:35:36;;;;;;;3.80;2.53;;;;;;;1.14;88.41;96245.28;5764310;24;20162;-88
2023/03/27 22:38:08;;;;;;;3.37;2.37;;;;;;;1.17;88.03;96249.44;5765309;24;20212;-89
2023/03/27 22:40:52;;;;;;;3.40;2.33;;;;;;;1.00;87.72;96250.22;5752798;24;20209;-86
2023/03/27 22:43:43;;;;;;;5.70;2.40;;;;;;;1.00;87.71;96253.63;5728078;25;20540;-87
2023/03/27 22:46:16;;;;;;;3.17;2.57;;;;;;;1.06;87.24;96247.38;5755147;24;20186;-87
2023/03/27 22:48:52;;;;;;;4.63;2.23;;;;;;;1.01;87.06;96254.44;5851899;24;20186;-88
2023/03/27 22:51:32;;;;;;;5.33;2.43;;;;;;;1.00;87.49;96257.91;5860782;24;20166;-87
2023/03/27 22:54:23;;;;;;;;;;;;;;;;;;;;;
2023/03/27 22:57:09;;;;;;;2.87;2.20;;;;;;;0.91;87.28;96266.84;6009101;23;20245;-86
2023/03/27 22:59:56;;;;;;;;;;;;;;;;;;;;;
2023/03/27 23:02:29;;;;;;;3.27;2.20;;;;;;;0.93;87.27;96269.31;6118374;23;20948;-86
2023/03/27 23:04:55;;;;;;;2.90;2.17;;;;;;;1.01;87.19;96273.16;6096360;23;20180;-86
2023/03/27 23:07:26;;;;;;;2.77;2.43;;;;;;;1.02;87.27;96279.13;6098258;23;20164;-86
2023/03/27 23:10:07;;;;;;;3.47;2.70;;;;;;;1.18;86.75;96274.13;6071541;23;20697;-86
2023/03/27 23:13:12;;;;;;;4.33;2.27;;;;;;;1.20;86.08;96269.75;6096054;23;20235;-86
2023/03/27 23:18:56;;;;;;;6.77;2.37;;;;;;;1.26;85.37;96282.25;6036880;23;20264;-86
2023/03/27 23:21:30;;;;;;;5.57;2.20;;;;;;;1.31;85.17;96283.66;6013760;23;20177;-89
2023/03/27 23:24:10;;;;;;;2.60;2.00;;;;;;;1.39;85.06;96285.88;6013513;23;20616;-86
2023/03/27 23:26:41;;;;;;;6.13;2.20;;;;;;;1.35;84.37;96290.31;6013139;23;20166;-87
2023/03/27 23:29:09;;;;;;;5.13;2.13;;;;;;;1.36;84.58;96281.72;6014402;23;20625;-88
2023/03/27 23:31:53;;;;;;;3.73;2.20;;;;;;;1.40;83.82;96285.78;6011601;23;20221;-87
2023/03/27 23:34:22;;;;;;;4.07;1.97;;;;;;;1.49;84.18;96291.38;6013219;23;20256;-87
2023/03/27 23:36:58;;;;;;;3.10;1.87;;;;;;;1.46;83.60;96281.28;6012528;23;20654;-87
2023/03/27 23:39:26;;;;;;;2.67;1.97;;;;;;;1.47;83.35;96290.63;6012892;23;20276;-87
2023/03/27 23:41:56;;;;;;;5.07;1.93;;;;;;;1.47;83.11;96288.06;6013035;23;20165;-86
2023/03/27 23:44:22;;;;;;;3.73;2.13;;;;;;;1.44;83.09;96291.59;6012760;23;20537;-87
2023/03/27 23:46:47;;;;;;;2.13;1.60;;;;;;;1.45;83.37;96295.00;6012969;23;20165;-86
2023/03/27 23:49:33;;;;;;;4.87;2.00;;;;;;;1.46;82.81;96300.03;6095511;23;20527;-86
2023/03/27 23:52:10;;;;;;;3.73;2.30;;;;;;;1.39;82.80;96296.94;6120615;23;20216;-86
2023/03/27 23:54:42;;;;;;;3.27;1.80;;;;;;;1.40;83.16;96308.81;6095264;23;20160;-87
2023/03/27 23:57:15;;;;;;;3.03;2.43;;;;;;;1.36;83.54;96306.50;6095775;23;20175;-86
2023/03/27 23:59:49;;;;;;;5.20;2.40;;;;;;;1.23;83.60;96306.22;6120244;23;20176;-85
